sensor_id;sensor_type;location;lat;lon;timestamp;pressure;altitude;pressure_sealevel;temperature;humidity
5283;BME280;15376;48.540;9.268;2023-05-22T00:01:46;97138.19;;;12.45;100.00
5283;BME280;15376;48.540;9.268;2023-05-22T00:04:13;97141.47;;;12.47;100.00
5283;BME280;15376;48.540;9.268;2023-05-22T00:06:46;97132.63;;;12.40;100.00
5283;BME280;15376;48.540;9.268;2023-05-22T00:09:11;97127.53;;;12.31;100.00
5283;BME280;15376;48.540;9.268;2023-05-22T00:11:37;97140.03;;;12.31;100.00
5283;BME280;15376;48.540;9.268;2023-05-22T00:14:03;97141.25;;;12.28;100.00
5283;BME280;15376;48.540;9.268;2023-05-22T00:16:29;97136.53;;;12.24;100.00
5283;BME280;15376;48.540;9.268;2023-05-22T00:18:54;97139.16;;;12.17;100.00
5283;BME280;15376;48.540;9.268;2023-05-22T00:21:21;97124.41;;;12.08;100.00
5283;BME280;15376;48.540;9.268;2023-05-22T00:23:48;97121.53;;;12.03;100.00
5283;BME280;15376;48.540;9.268;2023-05-22T00:26:14;97107.16;;;11.84;100.00
5283;BME280;15376;48.540;9.268;2023-05-22T00:28:41;97113.69;;;11.82;100.00
5283;BME280;15376;48.540;9.268;2023-05-22T00:31:06;97091.94;;;11.72;100.00
5283;BME280;15376;48.540;9.268;2023-05-22T00:33:31;97117.81;;;11.91;100.00
5283;BME280;15376;48.540;9.268;2023-05-22T00:35:58;97110.81;;;11.77;100.00
5283;BME280;15376;48.540;9.268;2023-05-22T00:38:28;97117.38;;;11.81;100.00
5283;BME280;15376;48.540;9.268;2023-05-22T00:40:54;97125.78;;;11.84;100.00
5283;BME280;15376;48.540;9.268;2023-05-22T00:43:22;97124.97;;;11.84;100.00
5283;BME280;15376;48.540;9.268;2023-05-22T00:45:47;97095.63;;;11.70;100.00
5283;BME280;15376;48.540;9.268;2023-05-22T00:48:12;97126.78;;;11.77;100.00
5283;BME280;15376;48.540;9.268;2023-05-22T00:50:40;97129.78;;;11.74;100.00
5283;BME280;15376;48.540;9.268;2023-05-22T00:53:05;97121.88;;;11.80;100.00
5283;BME280;15376;48.540;9.268;2023-05-22T00:55:31;97127.84;;;11.89;100.00
5283;BME280;15376;48.540;9.268;2023-05-22T00:57:56;97131.78;;;11.99;100.00
5283;BME280;15376;48.540;9.268;2023-05-22T01:00:22;97140.38;;;12.08;100.00
5283;BME280;15376;48.540;9.268;2023-05-22T01:02:47;97132.59;;;12.13;100.00
5283;BME280;15376;48.540;9.268;2023-05-22T01:05:13;97130.16;;;12.12;100.00
5283;BME280;15376;48.540;9.268;2023-05-22T01:07:43;97120.31;;;11.99;100.00
5283;BME280;15376;48.540;9.268;2023-05-22T01:10:09;97124.38;;;11.95;100.00
5283;BME280;15376;48.540;9.268;2023-05-22T01:15:44;97120.28;;;11.92;100.00
5283;BME280;15376;48.540;9.268;2023-05-22T01:21:32;97136.25;;;11.92;100.00
5283;BME280;15376;48.540;9.268;2023-05-22T01:32:00;97149.78;;;11.56;100.00
5283;BME280;15376;48.540;9.268;2023-05-22T01:34:27;97150.56;;;11.50;100.00
5283;BME280;15376;48.540;9.268;2023-05-22T01:36:55;97138.41;;;11.34;100.00
5283;BME280;15376;48.540;9.268;2023-05-22T01:39:23;97150.88;;;11.34;100.00
5283;BME280;15376;48.540;9.268;2023-05-22T01:41:49;97132.81;;;11.16;100.00
5283;BME280;15376;48.540;9.268;2023-05-22T01:44:15;97157.28;;;11.12;100.00
5283;BME280;15376;48.540;9.268;2023-05-22T01:46:40;97143.91;;;10.98;100.00
5283;BME280;15376;48.540;9.268;2023-05-22T01:49:08;97164.00;;;11.08;100.00
5283;BME280;15376;48.540;9.268;2023-05-22T01:51:54;97168.91;;;11.04;100.00
5283;BME280;15376;48.540;9.268;2023-05-22T01:54:37;97167.25;;;11.03;100.00
5283;BME280;15376;48.540;9.268;2023-05-22T01:57:18;97173.78;;;11.00;100.00
5283;BME280;15376;48.540;9.268;2023-05-22T02:00:00;97170.91;;;11.02;100.00
5283;BME280;15376;48.540;9.268;2023-05-22T02:02:35;97171.50;;;10.97;100.00
5283;BME280;15376;48.540;9.268;2023-05-22T02:05:03;97168.59;;;10.92;100.00
5283;BME280;15376;48.540;9.268;2023-05-22T02:07:31;97167.97;;;10.90;100.00
5283;BME280;15376;48.540;9.268;2023-05-22T02:09:58;97149.28;;;10.77;100.00
5283;BME280;15376;48.540;9.268;2023-05-22T02:12:25;97153.97;;;10.75;100.00
5283;BME280;15376;48.540;9.268;2023-05-22T02:14:51;97165.22;;;10.77;100.00
5283;BME280;15376;48.540;9.268;2023-05-22T02:17:17;97160.47;;;10.73;100.00
5283;BME280;15376;48.540;9.268;2023-05-22T02:19:43;97143.34;;;10.54;100.00
5283;BME280;15376;48.540;9.268;2023-05-22T02:22:09;97173.88;;;10.64;100.00
5283;BME280;15376;48.540;9.268;2023-05-22T02:24:39;97153.78;;;10.55;100.00
5283;BME280;15376;48.540;9.268;2023-05-22T02:27:05;97167.31;;;10.60;100.00
5283;BME280;15376;48.540;9.268;2023-05-22T02:29:31;97146.38;;;10.51;100.00
5283;BME280;15376;48.540;9.268;2023-05-22T02:31:56;97154.66;;;10.62;100.00
5283;BME280;15376;48.540;9.268;2023-05-22T02:34:22;97154.41;;;10.79;100.00
5283;BME280;15376;48.540;9.268;2023-05-22T02:36:47;97150.75;;;10.86;100.00
5283;BME280;15376;48.540;9.268;2023-05-22T02:39:18;97151.25;;;10.96;100.00
5283;BME280;15376;48.540;9.268;2023-05-22T02:41:44;97161.75;;;11.05;100.00
5283;BME280;15376;48.540;9.268;2023-05-22T02:44:10;97138.59;;;10.98;100.00
5283;BME280;15376;48.540;9.268;2023-05-22T02:46:35;97163.81;;;11.09;100.00
5283;BME280;15376;48.540;9.268;2023-05-22T02:49:00;97164.84;;;11.08;100.00
5283;BME280;15376;48.540;9.268;2023-05-22T02:51:26;97161.13;;;11.02;100.00
5283;BME280;15376;48.540;9.268;2023-05-22T02:53:51;97158.25;;;11.04;100.00
5283;BME280;15376;48.540;9.268;2023-05-22T02:56:17;97155.03;;;11.09;100.00
5283;BME280;15376;48.540;9.268;2023-05-22T02:58:43;97164.56;;;11.31;100.00
5283;BME280;15376;48.540;9.268;2023-05-22T03:01:08;97159.47;;;11.36;100.00
5283;BME280;15376;48.540;9.268;2023-05-22T03:03:34;97176.16;;;11.51;100.00
5283;BME280;15376;48.540;9.268;2023-05-22T03:06:00;97181.84;;;11.48;100.00
5283;BME280;15376;48.540;9.268;2023-05-22T03:08:26;97176.53;;;11.48;100.00
5283;BME280;15376;48.540;9.268;2023-05-22T03:10:53;97186.59;;;11.53;100.00
5283;BME280;15376;48.540;9.268;2023-05-22T03:13:19;97188.47;;;11.59;100.00
5283;BME280;15376;48.540;9.268;2023-05-22T03:15:47;97184.56;;;11.61;100.00
5283;BME280;15376;48.540;9.268;2023-05-22T03:18:12;97173.38;;;11.73;100.00
5283;BME280;15376;48.540;9.268;2023-05-22T03:20:38;97179.00;;;11.84;100.00
5283;BME280;15376;48.540;9.268;2023-05-22T03:23:04;97187.19;;;11.89;100.00
5283;BME280;15376;48.540;9.268;2023-05-22T03:25:32;97159.53;;;11.84;100.00
5283;BME280;15376;48.540;9.268;2023-05-22T03:27:57;97175.97;;;11.94;100.00
5283;BME280;15376;48.540;9.268;2023-05-22T03:30:22;97168.16;;;11.86;100.00
5283;BME280;15376;48.540;9.268;2023-05-22T03:32:48;97175.50;;;11.84;100.00
5283;BME280;15376;48.540;9.268;2023-05-22T03:35:13;97174.25;;;11.80;100.00
5283;BME280;15376;48.540;9.268;2023-05-22T03:37:43;97182.34;;;11.65;100.00
5283;BME280;15376;48.540;9.268;2023-05-22T03:40:09;97187.84;;;11.63;100.00
5283;BME280;15376;48.540;9.268;2023-05-22T03:42:35;97176.94;;;11.45;100.00
5283;BME280;15376;48.540;9.268;2023-05-22T03:45:00;97180.16;;;11.41;100.00
5283;BME280;15376;48.540;9.268;2023-05-22T03:47:25;97186.25;;;11.34;100.00
5283;BME280;15376;48.540;9.268;2023-05-22T03:49:51;97173.75;;;11.28;100.00
5283;BME280;15376;48.540;9.268;2023-05-22T03:52:16;97170.91;;;11.30;100.00
5283;BME280;15376;48.540;9.268;2023-05-22T03:54:41;97180.59;;;11.44;100.00
5283;BME280;15376;48.540;9.268;2023-05-22T03:57:07;97179.63;;;11.52;100.00
5283;BME280;15376;48.540;9.268;2023-05-22T03:59:32;97175.31;;;11.51;100.00
5283;BME280;15376;48.540;9.268;2023-05-22T04:01:57;97174.31;;;11.52;100.00
5283;BME280;15376;48.540;9.268;2023-05-22T04:04:26;97184.56;;;11.61;100.00
5283;BME280;15376;48.540;9.268;2023-05-22T04:06:52;97188.47;;;11.65;100.00
5283;BME280;15376;48.540;9.268;2023-05-22T04:09:17;97174.97;;;11.67;100.00
5283;BME280;15376;48.540;9.268;2023-05-22T04:11:43;97190.22;;;11.80;100.00
5283;BME280;15376;48.540;9.268;2023-05-22T04:14:08;97184.53;;;11.89;100.00
5283;BME280;15376;48.540;9.268;2023-05-22T04:16:34;97175.75;;;11.89;100.00
5283;BME280;15376;48.540;9.268;2023-05-22T04:19:00;97185.38;;;12.03;100.00
5283;BME280;15376;48.540;9.268;2023-05-22T04:21:27;97189.53;;;12.12;100.00
5283;BME280;15376;48.540;9.268;2023-05-22T04:23:53;97183.00;;;12.21;100.00
5283;BME280;15376;48.540;9.268;2023-05-22T04:26:18;97200.25;;;12.32;100.00
5283;BME280;15376;48.540;9.268;2023-05-22T04:28:45;97174.03;;;12.35;100.00
5283;BME280;15376;48.540;9.268;2023-05-22T04:31:11;97174.88;;;12.49;100.00
5283;BME280;15376;48.540;9.268;2023-05-22T04:33:37;97185.75;;;12.61;100.00
5283;BME280;15376;48.540;9.268;2023-05-22T04:36:04;97181.47;;;12.73;100.00
5283;BME280;15376;48.540;9.268;2023-05-22T04:38:31;97192.53;;;12.90;100.00
5283;BME280;15376;48.540;9.268;2023-05-22T04:41:04;97192.31;;;12.98;100.00
5283;BME280;15376;48.540;9.268;2023-05-22T04:43:32;97173.66;;;12.98;100.00
5283;BME280;15376;48.540;9.268;2023-05-22T04:45:57;97174.09;;;13.08;100.00
5283;BME280;15376;48.540;9.268;2023-05-22T04:48:23;97165.88;;;13.23;100.00
5283;BME280;15376;48.540;9.268;2023-05-22T04:50:49;97178.97;;;13.57;100.00
5283;BME280;15376;48.540;9.268;2023-05-22T04:53:14;97157.97;;;13.67;100.00
5283;BME280;15376;48.540;9.268;2023-05-22T04:55:40;97115.28;;;13.67;100.00
5283;BME280;15376;48.540;9.268;2023-05-22T04:58:05;97140.56;;;14.03;100.00
5283;BME280;15376;48.540;9.268;2023-05-22T05:00:31;97165.44;;;14.42;100.00
5283;BME280;15376;48.540;9.268;2023-05-22T05:02:56;97178.06;;;14.66;100.00
5283;BME280;15376;48.540;9.268;2023-05-22T05:05:22;97154.94;;;14.78;100.00
5283;BME280;15376;48.540;9.268;2023-05-22T05:07:48;97170.16;;;15.02;100.00
5283;BME280;15376;48.540;9.268;2023-05-22T05:10:14;97167.75;;;15.19;100.00
5283;BME280;15376;48.540;9.268;2023-05-22T05:12:40;97170.94;;;15.28;100.00
5283;BME280;15376;48.540;9.268;2023-05-22T05:15:06;97175.75;;;15.44;100.00
5283;BME280;15376;48.540;9.268;2023-05-22T05:17:31;97173.16;;;15.56;100.00
5283;BME280;15376;48.540;9.268;2023-05-22T05:19:57;97167.88;;;15.49;100.00
5283;BME280;15376;48.540;9.268;2023-05-22T05:22:25;97179.97;;;15.58;100.00
5283;BME280;15376;48.540;9.268;2023-05-22T05:24:53;97174.00;;;15.75;100.00
5283;BME280;15376;48.540;9.268;2023-05-22T05:27:19;97167.81;;;15.92;100.00
5283;BME280;15376;48.540;9.268;2023-05-22T05:29:44;97165.78;;;16.06;100.00
5283;BME280;15376;48.540;9.268;2023-05-22T05:32:09;97151.94;;;16.09;100.00
5283;BME280;15376;48.540;9.268;2023-05-22T05:34:36;97175.59;;;16.30;100.00
5283;BME280;15376;48.540;9.268;2023-05-22T05:37:03;97166.88;;;16.35;100.00
5283;BME280;15376;48.540;9.268;2023-05-22T05:39:28;97170.59;;;16.64;100.00
5283;BME280;15376;48.540;9.268;2023-05-22T05:41:54;97171.91;;;16.85;100.00
5283;BME280;15376;48.540;9.268;2023-05-22T05:44:19;97168.66;;;16.94;100.00
5283;BME280;15376;48.540;9.268;2023-05-22T05:46:45;97168.94;;;17.16;100.00
5283;BME280;15376;48.540;9.268;2023-05-22T05:49:10;97159.94;;;17.34;100.00
5283;BME280;15376;48.540;9.268;2023-05-22T05:51:37;97166.25;;;17.51;100.00
5283;BME280;15376;48.540;9.268;2023-05-22T05:54:03;97177.34;;;17.66;100.00
5283;BME280;15376;48.540;9.268;2023-05-22T05:56:28;97161.34;;;17.72;100.00
5283;BME280;15376;48.540;9.268;2023-05-22T05:58:54;97175.22;;;17.92;100.00
5283;BME280;15376;48.540;9.268;2023-05-22T06:01:19;97175.91;;;17.99;100.00
5283;BME280;15376;48.540;9.268;2023-05-22T06:03:49;97174.22;;;18.10;100.00
5283;BME280;15376;48.540;9.268;2023-05-22T06:06:14;97176.41;;;18.24;100.00
5283;BME280;15376;48.540;9.268;2023-05-22T06:08:41;97172.22;;;18.45;100.00
5283;BME280;15376;48.540;9.268;2023-05-22T06:11:07;97176.97;;;18.55;100.00
5283;BME280;15376;48.540;9.268;2023-05-22T06:13:32;97173.47;;;18.54;100.00
5283;BME280;15376;48.540;9.268;2023-05-22T06:15:58;97173.06;;;18.74;100.00
5283;BME280;15376;48.540;9.268;2023-05-22T06:18:23;97190.09;;;18.96;100.00
5283;BME280;15376;48.540;9.268;2023-05-22T06:20:50;97182.13;;;19.02;100.00
5283;BME280;15376;48.540;9.268;2023-05-22T06:23:15;97183.41;;;18.82;100.00
5283;BME280;15376;48.540;9.268;2023-05-22T06:25:41;97195.97;;;18.93;100.00
5283;BME280;15376;48.540;9.268;2023-05-22T06:28:06;97188.41;;;19.07;100.00
5283;BME280;15376;48.540;9.268;2023-05-22T06:30:32;97189.94;;;19.03;100.00
5283;BME280;15376;48.540;9.268;2023-05-22T06:32:57;97186.88;;;19.11;100.00
5283;BME280;15376;48.540;9.268;2023-05-22T06:35:22;97195.50;;;18.96;100.00
5283;BME280;15376;48.540;9.268;2023-05-22T06:37:48;97186.31;;;18.81;100.00
5283;BME280;15376;48.540;9.268;2023-05-22T06:40:13;97188.03;;;18.70;100.00
5283;BME280;15376;48.540;9.268;2023-05-22T06:42:39;97185.16;;;18.60;100.00
5283;BME280;15376;48.540;9.268;2023-05-22T06:45:14;97180.38;;;18.50;100.00
5283;BME280;15376;48.540;9.268;2023-05-22T06:47:41;97188.50;;;18.39;100.00
5283;BME280;15376;48.540;9.268;2023-05-22T06:50:07;97183.44;;;18.42;100.00
5283;BME280;15376;48.540;9.268;2023-05-22T06:52:34;97193.81;;;18.62;100.00
5283;BME280;15376;48.540;9.268;2023-05-22T06:55:00;97184.06;;;18.73;100.00
5283;BME280;15376;48.540;9.268;2023-05-22T06:57:32;97189.78;;;18.76;100.00
5283;BME280;15376;48.540;9.268;2023-05-22T06:59:57;97172.81;;;18.76;100.00
5283;BME280;15376;48.540;9.268;2023-05-22T07:02:23;97188.47;;;18.95;100.00
5283;BME280;15376;48.540;9.268;2023-05-22T07:04:48;97199.41;;;19.06;100.00
5283;BME280;15376;48.540;9.268;2023-05-22T07:07:14;97196.16;;;19.37;100.00
5283;BME280;15376;48.540;9.268;2023-05-22T07:09:39;97196.19;;;19.54;100.00
5283;BME280;15376;48.540;9.268;2023-05-22T07:12:05;97195.47;;;19.63;100.00
5283;BME280;15376;48.540;9.268;2023-05-22T07:14:30;97196.09;;;19.87;100.00
5283;BME280;15376;48.540;9.268;2023-05-22T07:16:56;97189.66;;;19.88;100.00
5283;BME280;15376;48.540;9.268;2023-05-22T07:19:21;97197.56;;;19.95;100.00
5283;BME280;15376;48.540;9.268;2023-05-22T07:21:46;97193.59;;;20.03;100.00
5283;BME280;15376;48.540;9.268;2023-05-22T07:24:12;97196.16;;;20.14;100.00
5283;BME280;15376;48.540;9.268;2023-05-22T07:26:37;97202.81;;;20.28;100.00
5283;BME280;15376;48.540;9.268;2023-05-22T07:29:03;97197.50;;;20.34;100.00
5283;BME280;15376;48.540;9.268;2023-05-22T07:31:29;97204.31;;;20.63;100.00
5283;BME280;15376;48.540;9.268;2023-05-22T07:33:56;97189.16;;;20.89;99.96
5283;BME280;15376;48.540;9.268;2023-05-22T07:36:21;97189.53;;;20.97;100.00
5283;BME280;15376;48.540;9.268;2023-05-22T07:38:46;97187.22;;;21.43;98.94
5283;BME280;15376;48.540;9.268;2023-05-22T07:41:12;97202.38;;;21.86;98.24
5283;BME280;15376;48.540;9.268;2023-05-22T07:43:37;97189.75;;;22.02;93.40
5283;BME280;15376;48.540;9.268;2023-05-22T07:46:03;97193.31;;;22.13;91.82
5283;BME280;15376;48.540;9.268;2023-05-22T07:48:30;97186.34;;;21.75;93.08
5283;BME280;15376;48.540;9.268;2023-05-22T07:50:55;97203.25;;;21.97;92.37
5283;BME280;15376;48.540;9.268;2023-05-22T07:53:20;97181.72;;;22.17;92.58
5283;BME280;15376;48.540;9.268;2023-05-22T07:55:46;97191.47;;;22.23;90.07
5283;BME280;15376;48.540;9.268;2023-05-22T07:58:12;97198.03;;;22.43;88.80
5283;BME280;15376;48.540;9.268;2023-05-22T08:00:37;97178.78;;;22.29;88.43
5283;BME280;15376;48.540;9.268;2023-05-22T08:03:03;97180.72;;;22.34;90.00
5283;BME280;15376;48.540;9.268;2023-05-22T08:05:28;97193.59;;;22.16;91.87
5283;BME280;15376;48.540;9.268;2023-05-22T08:07:54;97202.81;;;22.15;91.33
5283;BME280;15376;48.540;9.268;2023-05-22T08:10:19;97211.81;;;22.31;92.46
5283;BME280;15376;48.540;9.268;2023-05-22T08:12:44;97212.25;;;22.13;92.52
5283;BME280;15376;48.540;9.268;2023-05-22T08:15:10;97216.22;;;21.95;93.03
5283;BME280;15376;48.540;9.268;2023-05-22T08:17:36;97207.78;;;21.86;93.94
5283;BME280;15376;48.540;9.268;2023-05-22T08:20:01;97208.03;;;21.85;96.73
5283;BME280;15376;48.540;9.268;2023-05-22T08:22:30;97203.25;;;21.97;94.91
5283;BME280;15376;48.540;9.268;2023-05-22T08:24:56;97207.38;;;21.68;95.30
5283;BME280;15376;48.540;9.268;2023-05-22T08:27:21;97197.91;;;21.65;95.10
5283;BME280;15376;48.540;9.268;2023-05-22T08:29:47;97205.44;;;21.63;95.86
5283;BME280;15376;48.540;9.268;2023-05-22T08:32:12;97196.00;;;21.66;95.75
5283;BME280;15376;48.540;9.268;2023-05-22T08:34:37;97199.75;;;21.59;97.35
5283;BME280;15376;48.540;9.268;2023-05-22T08:37:04;97200.81;;;21.53;97.71
5283;BME280;15376;48.540;9.268;2023-05-22T08:39:30;97194.06;;;21.56;98.79
5283;BME280;15376;48.540;9.268;2023-05-22T08:41:56;97182.97;;;21.52;97.77
5283;BME280;15376;48.540;9.268;2023-05-22T08:44:21;97198.16;;;21.63;97.14
5283;BME280;15376;48.540;9.268;2023-05-22T08:46:50;97201.38;;;21.55;97.94
5283;BME280;15376;48.540;9.268;2023-05-22T08:49:16;97199.38;;;21.41;97.86
5283;BME280;15376;48.540;9.268;2023-05-22T08:51:46;97188.31;;;21.42;96.70
5283;BME280;15376;48.540;9.268;2023-05-22T08:54:14;97204.03;;;21.50;98.81
5283;BME280;15376;48.540;9.268;2023-05-22T08:56:40;97179.50;;;21.57;98.60
5283;BME280;15376;48.540;9.268;2023-05-22T08:59:05;97203.16;;;21.82;96.75
5283;BME280;15376;48.540;9.268;2023-05-22T09:01:31;97200.50;;;21.92;96.66
5283;BME280;15376;48.540;9.268;2023-05-22T09:03:59;97193.66;;;21.79;96.34
5283;BME280;15376;48.540;9.268;2023-05-22T09:06:25;97189.97;;;21.95;94.60
5283;BME280;15376;48.540;9.268;2023-05-22T09:08:53;97195.22;;;22.12;93.05
5283;BME280;15376;48.540;9.268;2023-05-22T09:11:18;97185.53;;;22.21;89.40
5283;BME280;15376;48.540;9.268;2023-05-22T09:13:44;97182.25;;;22.14;91.38
5283;BME280;15376;48.540;9.268;2023-05-22T09:16:11;97195.84;;;22.40;90.04
5283;BME280;15376;48.540;9.268;2023-05-22T09:18:37;97198.09;;;22.58;86.78
5283;BME280;15376;48.540;9.268;2023-05-22T09:21:04;97193.47;;;22.58;85.73
5283;BME280;15376;48.540;9.268;2023-05-22T09:23:39;97188.63;;;22.66;89.08
5283;BME280;15376;48.540;9.268;2023-05-22T09:26:04;97192.78;;;22.93;86.49
5283;BME280;15376;48.540;9.268;2023-05-22T09:28:35;97191.16;;;22.98;86.17
5283;BME280;15376;48.540;9.268;2023-05-22T09:31:01;97180.34;;;23.13;86.07
5283;BME280;15376;48.540;9.268;2023-05-22T09:33:28;97184.66;;;23.39;85.75
5283;BME280;15376;48.540;9.268;2023-05-22T09:35:54;97193.59;;;23.40;83.43
5283;BME280;15376;48.540;9.268;2023-05-22T09:38:27;97191.16;;;23.38;82.67
5283;BME280;15376;48.540;9.268;2023-05-22T09:40:54;97187.34;;;23.29;83.91
5283;BME280;15376;48.540;9.268;2023-05-22T09:43:21;97185.72;;;23.33;82.74
5283;BME280;15376;48.540;9.268;2023-05-22T09:45:54;97169.47;;;23.38;87.58
5283;BME280;15376;48.540;9.268;2023-05-22T09:48:21;97182.47;;;23.67;85.57
5283;BME280;15376;48.540;9.268;2023-05-22T09:50:46;97184.34;;;23.81;85.60
5283;BME280;15376;48.540;9.268;2023-05-22T09:53:15;97175.03;;;24.08;87.50
5283;BME280;15376;48.540;9.268;2023-05-22T09:55:46;97182.03;;;24.34;83.32
5283;BME280;15376;48.540;9.268;2023-05-22T09:58:12;97170.41;;;24.13;86.36
5283;BME280;15376;48.540;9.268;2023-05-22T10:00:41;97179.41;;;24.63;82.72
5283;BME280;15376;48.540;9.268;2023-05-22T10:03:10;97174.34;;;24.90;81.15
5283;BME280;15376;48.540;9.268;2023-05-22T10:05:39;97181.47;;;25.20;80.43
5283;BME280;15376;48.540;9.268;2023-05-22T10:08:13;97174.06;;;25.60;79.81
5283;BME280;15376;48.540;9.268;2023-05-22T10:10:41;97183.94;;;26.33;75.22
5283;BME280;15376;48.540;9.268;2023-05-22T10:13:07;97172.75;;;27.28;73.48
5283;BME280;15376;48.540;9.268;2023-05-22T10:15:34;97178.16;;;28.07;68.96
5283;BME280;15376;48.540;9.268;2023-05-22T10:17:59;97189.56;;;29.36;65.02
5283;BME280;15376;48.540;9.268;2023-05-22T10:20:26;97187.81;;;29.40;62.76
5283;BME280;15376;48.540;9.268;2023-05-22T10:22:53;97192.56;;;30.01;60.73
5283;BME280;15376;48.540;9.268;2023-05-22T10:25:19;97190.91;;;31.40;56.81
5283;BME280;15376;48.540;9.268;2023-05-22T10:27:46;97188.94;;;32.51;49.97
5283;BME280;15376;48.540;9.268;2023-05-22T10:30:20;97177.59;;;33.03;50.02
5283;BME280;15376;48.540;9.268;2023-05-22T10:41:12;97168.28;;;33.82;44.85
5283;BME280;15376;48.540;9.268;2023-05-22T10:43:40;97163.50;;;34.64;45.36
5283;BME280;15376;48.540;9.268;2023-05-22T10:46:11;97169.53;;;33.39;46.54
5283;BME280;15376;48.540;9.268;2023-05-22T10:48:47;97163.28;;;33.63;46.62
5283;BME280;15376;48.540;9.268;2023-05-22T10:51:20;97163.13;;;34.05;44.02
5283;BME280;15376;48.540;9.268;2023-05-22T10:53:56;97161.78;;;34.60;42.49
5283;BME280;15376;48.540;9.268;2023-05-22T10:56:22;97142.53;;;33.78;44.48
5283;BME280;15376;48.540;9.268;2023-05-22T10:58:55;97158.19;;;34.84;43.46
5283;BME280;15376;48.540;9.268;2023-05-22T11:01:24;97153.72;;;36.22;40.65
5283;BME280;15376;48.540;9.268;2023-05-22T11:03:57;97151.13;;;35.38;40.16
5283;BME280;15376;48.540;9.268;2023-05-22T11:09:25;97144.69;;;36.09;39.14
5283;BME280;15376;48.540;9.268;2023-05-22T11:14:40;97144.38;;;36.78;36.24
5283;BME280;15376;48.540;9.268;2023-05-22T11:17:05;97142.47;;;36.15;35.52
5283;BME280;15376;48.540;9.268;2023-05-22T11:19:31;97132.06;;;35.21;38.90
5283;BME280;15376;48.540;9.268;2023-05-22T11:22:00;97125.16;;;34.87;39.90
5283;BME280;15376;48.540;9.268;2023-05-22T11:24:32;97128.34;;;35.73;36.73
5283;BME280;15376;48.540;9.268;2023-05-22T11:27:05;97127.44;;;34.45;38.13
5283;BME280;15376;48.540;9.268;2023-05-22T11:29:32;97116.75;;;34.43;40.42
5283;BME280;15376;48.540;9.268;2023-05-22T11:31:57;97121.09;;;35.96;35.79
5283;BME280;15376;48.540;9.268;2023-05-22T11:34:24;97109.28;;;34.96;38.34
5283;BME280;15376;48.540;9.268;2023-05-22T11:36:51;97113.88;;;35.20;36.55
5283;BME280;15376;48.540;9.268;2023-05-22T11:39:16;97098.91;;;33.68;39.25
5283;BME280;15376;48.540;9.268;2023-05-22T11:41:42;97098.25;;;34.20;41.29
5283;BME280;15376;48.540;9.268;2023-05-22T11:44:07;97101.34;;;34.95;40.44
5283;BME280;15376;48.540;9.268;2023-05-22T11:46:33;97089.13;;;35.67;37.23
5283;BME280;15376;48.540;9.268;2023-05-22T11:48:58;97094.13;;;35.18;38.70
5283;BME280;15376;48.540;9.268;2023-05-22T11:51:26;97086.41;;;34.19;37.57
5283;BME280;15376;48.540;9.268;2023-05-22T11:53:51;97077.34;;;32.50;41.25
5283;BME280;15376;48.540;9.268;2023-05-22T11:56:19;97092.50;;;34.25;38.22
5283;BME280;15376;48.540;9.268;2023-05-22T11:58:49;97095.81;;;34.55;37.20
5283;BME280;15376;48.540;9.268;2023-05-22T12:01:16;97105.53;;;34.76;37.84
5283;BME280;15376;48.540;9.268;2023-05-22T12:03:41;97105.00;;;34.99;38.00
5283;BME280;15376;48.540;9.268;2023-05-22T12:06:07;97108.56;;;35.27;36.50
5283;BME280;15376;48.540;9.268;2023-05-22T12:08:33;97094.31;;;36.00;34.96
5283;BME280;15376;48.540;9.268;2023-05-22T12:10:59;97098.06;;;33.22;38.76
5283;BME280;15376;48.540;9.268;2023-05-22T12:13:28;97094.28;;;35.25;36.10
5283;BME280;15376;48.540;9.268;2023-05-22T12:15:57;97097.97;;;36.04;33.37
5283;BME280;15376;48.540;9.268;2023-05-22T12:18:23;97095.19;;;36.04;34.53
5283;BME280;15376;48.540;9.268;2023-05-22T12:20:54;97081.91;;;36.26;31.34
5283;BME280;15376;48.540;9.268;2023-05-22T12:23:27;97093.41;;;35.21;31.47
5283;BME280;15376;48.540;9.268;2023-05-22T12:26:07;97095.72;;;34.91;33.20
5283;BME280;15376;48.540;9.268;2023-05-22T12:28:33;97091.31;;;35.02;33.98
5283;BME280;15376;48.540;9.268;2023-05-22T12:30:59;97072.53;;;34.03;37.89
5283;BME280;15376;48.540;9.268;2023-05-22T12:33:28;97088.50;;;35.15;35.75
5283;BME280;15376;48.540;9.268;2023-05-22T12:35:55;97088.31;;;35.07;35.20
5283;BME280;15376;48.540;9.268;2023-05-22T12:38:29;97083.94;;;35.66;33.65
5283;BME280;15376;48.540;9.268;2023-05-22T12:40:55;97088.69;;;36.28;34.25
5283;BME280;15376;48.540;9.268;2023-05-22T12:43:23;97092.28;;;35.97;31.34
5283;BME280;15376;48.540;9.268;2023-05-22T12:45:50;97083.47;;;34.76;33.65
5283;BME280;15376;48.540;9.268;2023-05-22T12:48:16;97091.03;;;34.80;33.25
5283;BME280;15376;48.540;9.268;2023-05-22T12:50:42;97086.28;;;35.48;33.43
5283;BME280;15376;48.540;9.268;2023-05-22T12:53:08;97100.06;;;35.64;32.84
5283;BME280;15376;48.540;9.268;2023-05-22T12:55:33;97100.56;;;35.97;32.54
5283;BME280;15376;48.540;9.268;2023-05-22T12:57:59;97097.31;;;36.11;31.52
5283;BME280;15376;48.540;9.268;2023-05-22T13:00:24;97081.63;;;36.85;31.31
5283;BME280;15376;48.540;9.268;2023-05-22T13:02:50;97062.31;;;37.08;29.14
5283;BME280;15376;48.540;9.268;2023-05-22T13:05:15;97066.09;;;36.61;30.22
5283;BME280;15376;48.540;9.268;2023-05-22T13:07:41;97071.75;;;35.67;31.81
5283;BME280;15376;48.540;9.268;2023-05-22T13:10:07;97063.41;;;34.92;33.07
5283;BME280;15376;48.540;9.268;2023-05-22T13:12:32;97064.38;;;34.71;33.78
5283;BME280;15376;48.540;9.268;2023-05-22T13:14:58;97066.09;;;34.36;33.59
5283;BME280;15376;48.540;9.268;2023-05-22T13:17:24;97060.50;;;34.60;33.17
5283;BME280;15376;48.540;9.268;2023-05-22T13:19:50;97068.75;;;34.32;33.59
5283;BME280;15376;48.540;9.268;2023-05-22T13:22:15;97080.69;;;34.36;34.45
5283;BME280;15376;48.540;9.268;2023-05-22T13:24:41;97063.81;;;34.38;34.88
5283;BME280;15376;48.540;9.268;2023-05-22T13:27:09;97068.72;;;35.40;34.03
5283;BME280;15376;48.540;9.268;2023-05-22T13:29:34;97058.81;;;36.02;32.54
5283;BME280;15376;48.540;9.268;2023-05-22T13:32:00;97056.75;;;35.68;33.11